Richmond, Ohio
Current Conditions -  °F | °C
As of 4:53 AM on Sunday 23 Nov 2014 (Local Time) from KHLG Reporting Station
Overcast Overcast  
Wind Chill: 50°   Ceiling: 4800
Heat Index: 50°   Visibility: 10mi
Dew Point: 25°   Wind: 7mph
Humidity: 38%   Direction: 200°SSW
Pressure: 30.09"   Gusts: NA
Location:  40.43°N, 80.77°W
Report Text: KHLG 230953Z AUTO 20006KT 10SM OVC048 10/M04 A3009 RMK AO2 SLP195 T01001039
Loading
Personal Weather Stations






























Interactive Weather Map New forecast layout! Learn more

10-Day Weather Forecast

Advertisements
Track Severe Weather on mobile